Time;durP1;ratioP1;P1;durP2;ratioP2;P2;SDS_P1;SDS_P2;PMS_P1;PMS_P2;Temp;Humidity;BMP_temperature;BMP_pressure;BME280_temperature;BME280_humidity;BME280_pressure;Samples;Min_cycle;Max_cycle;Signal;HPM_P1;HPM_P2
2022/01/03 00:00:14;;;;;;;7.17;1.90;;;8.60;99.90;;;;;;5105577;28;20054;-83
2022/01/03 00:02:42;;;;;;;26.97;2.70;;;8.70;99.90;;;;;;5082632;28;20044;-84
2022/01/03 00:05:09;;;;;;;9.60;2.47;;;8.70;99.90;;;;;;5063734;28;20437;-84
2022/01/03 00:07:41;;;;;;;9.20;2.20;;;8.70;99.90;;;;;;5061755;28;20154;-84
2022/01/03 00:10:08;;;;;;;7.88;2.00;;;8.70;99.90;;;;;;5094543;28;20043;-85
2022/01/03 00:12:35;;;;;;;9.57;2.60;;;8.80;99.90;;;;;;5058168;28;20039;-84
2022/01/03 00:15:03;;;;;;;10.00;2.63;;;8.80;99.90;;;;;;5097185;28;20120;-84
2022/01/03 00:17:29;;;;;;;7.03;2.20;;;8.80;99.90;;;;;;5109801;28;20036;-86
2022/01/03 00:19:54;;;;;;;9.97;2.87;;;8.80;99.90;;;;;;5065003;28;20048;-86
2022/01/03 00:22:22;;;;;;;7.63;2.30;;;8.90;99.90;;;;;;5047444;28;20052;-84
2022/01/03 00:25:15;;;;;;;10.57;2.77;;;8.90;99.90;;;;;;5076262;28;20075;-86
2022/01/03 00:27:49;;;;;;;7.13;2.57;;;9.00;99.90;;;;;;5086708;28;20039;-85
2022/01/03 00:30:19;;;;;;;12.40;2.33;;;9.00;99.90;;;;;;5081104;28;20048;-84
2022/01/03 00:32:48;;;;;;;10.90;2.80;;;9.00;99.90;;;;;;5078484;28;20071;-84
2022/01/03 00:35:16;;;;;;;13.30;3.13;;;9.10;99.90;;;;;;5091929;28;20052;-84
2022/01/03 00:37:44;;;;;;;11.23;2.83;;;9.10;99.90;;;;;;5082539;28;20047;-87
2022/01/03 00:40:10;;;;;;;10.20;2.60;;;9.10;99.90;;;;;;5069598;28;20101;-86
2022/01/03 00:42:36;;;;;;;12.70;2.73;;;9.10;99.90;;;;;;5073569;28;20051;-85
2022/01/03 00:45:03;;;;;;;12.80;2.60;;;9.20;99.90;;;;;;5106468;28;20055;-85
2022/01/03 00:47:32;;;;;;;10.00;2.53;;;9.20;99.90;;;;;;5081610;28;20071;-86
2022/01/03 00:50:03;;;;;;;12.37;2.20;;;9.20;99.90;;;;;;5099485;28;20659;-86
2022/01/03 00:52:29;;;;;;;10.83;2.93;;;9.20;99.90;;;;;;5092325;28;20060;-87
2022/01/03 00:54:54;;;;;;;13.70;2.70;;;9.20;99.90;;;;;;5053480;28;20130;-86
2022/01/03 00:57:31;;;;;;;12.17;3.03;;;9.20;99.90;;;;;;5087190;28;20122;-84
2022/01/03 01:00:05;;;;;;;12.90;3.43;;;9.30;99.90;;;;;;5093052;28;20051;-85
2022/01/03 01:02:37;;;;;;;11.07;3.07;;;9.30;99.90;;;;;;5091039;28;20093;-86
2022/01/03 01:05:05;;;;;;;13.27;3.50;;;9.30;99.90;;;;;;5089219;28;20036;-85
2022/01/03 01:07:32;;;;;;;18.13;3.83;;;9.40;99.90;;;;;;5069354;28;20077;-84
2022/01/03 01:10:04;;;;;;;19.23;3.47;;;9.40;99.90;;;;;;5094558;28;20035;-85
2022/01/03 01:12:31;;;;;;;24.15;3.60;;;9.40;99.90;;;;;;5070953;28;20051;-85
2022/01/03 01:14:57;;;;;;;22.73;4.23;;;9.40;99.90;;;;;;5083643;28;20072;-85
2022/01/03 01:17:27;;;;;;;16.83;3.47;;;9.40;99.90;;;;;;5092244;28;20040;-86
2022/01/03 01:19:54;;;;;;;16.97;3.80;;;9.40;99.90;;;;;;5100965;28;20135;-84
2022/01/03 01:22:21;;;;;;;16.80;3.27;;;9.40;99.90;;;;;;5091979;28;20062;-85
2022/01/03 01:24:59;;;;;;;18.83;3.67;;;9.40;99.90;;;;;;5091988;28;20043;-85
2022/01/03 01:30:11;;;;;;;18.03;3.70;;;9.40;99.90;;;;;;5083215;28;20130;-84
2022/01/03 01:32:41;;;;;;;19.20;4.00;;;9.50;99.90;;;;;;5069753;28;20058;-84
2022/01/03 01:35:08;;;;;;;23.17;4.43;;;9.40;99.90;;;;;;5085470;28;20099;-84
2022/01/03 01:37:36;;;;;;;18.47;4.90;;;9.50;99.90;;;;;;5077941;28;20044;-84
2022/01/03 01:40:03;;;;;;;13.80;3.63;;;9.50;99.90;;;;;;5072727;28;20032;-85
2022/01/03 01:42:31;;;;;;;24.57;3.77;;;9.40;99.90;;;;;;5080994;28;20071;-85
2022/01/03 01:44:59;;;;;;;11.73;3.27;;;9.50;99.90;;;;;;5068759;28;20036;-85
2022/01/03 01:47:27;;;;;;;17.77;3.70;;;9.50;99.90;;;;;;5087211;28;20051;-86
2022/01/03 01:49:56;;;;;;;22.63;3.67;;;9.50;99.90;;;;;;5093155;28;20043;-85
2022/01/03 01:52:24;;;;;;;20.00;3.73;;;9.50;99.90;;;;;;5099868;28;20051;-86
2022/01/03 01:54:56;;;;;;;19.03;3.77;;;9.40;99.90;;;;;;5067018;28;20091;-85
2022/01/03 01:57:30;;;;;;;20.70;3.97;;;9.50;99.90;;;;;;5081162;28;20039;-84
2022/01/03 02:00:08;;;;;;;16.67;4.10;;;9.50;99.90;;;;;;5085690;28;20035;-84
2022/01/03 02:02:58;;;;;;;17.73;3.83;;;9.50;99.90;;;;;;5100720;28;20047;-84
2022/01/03 02:05:39;;;;;;;22.50;3.90;;;9.40;99.90;;;;;;5086127;28;20066;-85
2022/01/03 02:08:14;;;;;;;19.97;4.77;;;9.50;99.90;;;;;;5087136;28;20040;-85
2022/01/03 02:10:44;;;;;;;18.53;4.13;;;9.50;99.90;;;;;;5100051;28;20535;-85
2022/01/03 02:13:14;;;;;;;22.17;4.80;;;9.50;99.90;;;;;;5097136;28;20051;-84
2022/01/03 02:15:45;;;;;;;19.53;4.20;;;9.50;99.90;;;;;;5086936;28;20044;-85
2022/01/03 02:18:11;;;;;;;23.63;5.30;;;9.50;99.90;;;;;;5068760;28;20156;-85
2022/01/03 02:20:37;;;;;;;20.53;4.10;;;9.50;99.90;;;;;;5087653;28;20046;-85
2022/01/03 02:23:03;;;;;;;16.17;4.10;;;9.50;99.90;;;;;;5085597;28;20144;-86
2022/01/03 02:25:29;;;;;;;20.13;3.60;;;9.50;99.90;;;;;;5072430;28;20048;-85
2022/01/03 02:27:55;;;;;;;25.07;4.43;;;9.50;99.90;;;;;;5089921;28;20048;-85
2022/01/03 02:30:27;;;;;;;17.80;3.80;;;9.50;99.90;;;;;;5073926;28;20044;-84
2022/01/03 02:32:53;;;;;;;15.18;3.17;;;9.50;99.90;;;;;;5088846;28;20109;-84
2022/01/03 02:35:19;;;;;;;14.13;3.33;;;9.50;99.90;;;;;;5057715;28;20044;-84
2022/01/03 02:37:46;;;;;;;18.80;3.40;;;9.50;99.90;;;;;;5089672;28;20028;-84
2022/01/03 02:40:13;;;;;;;21.90;3.27;;;9.50;99.90;;;;;;5082835;28;20042;-85
2022/01/03 02:42:40;;;;;;;19.27;3.83;;;9.40;99.90;;;;;;5096213;28;20075;-84
2022/01/03 02:45:14;;;;;;;22.23;4.73;;;9.50;99.90;;;;;;5085317;28;20059;-83
2022/01/03 02:47:41;;;;;;;17.40;3.67;;;9.40;99.90;;;;;;5079116;28;20051;-85
2022/01/03 02:50:09;;;;;;;19.50;3.73;;;9.40;99.90;;;;;;5093970;28;20108;-85
2022/01/03 02:52:35;;;;;;;17.93;4.47;;;9.50;99.90;;;;;;5112802;28;20056;-85
2022/01/03 02:55:03;;;;;;;15.57;3.60;;;9.40;99.90;;;;;;5071607;28;20122;-85
2022/01/03 02:57:40;;;;;;;17.03;3.17;;;9.40;99.90;;;;;;5069265;28;20100;-84
2022/01/03 03:00:09;;;;;;;23.47;3.73;;;9.40;99.90;;;;;;5123314;27;20072;-85
2022/01/03 03:02:35;;;;;;;19.57;3.27;;;9.40;99.90;;;;;;5113055;28;20464;-85
2022/01/03 03:05:04;;;;;;;19.67;3.67;;;9.40;99.90;;;;;;5073778;28;20051;-85
2022/01/03 03:07:31;;;;;;;19.23;3.40;;;9.40;99.90;;;;;;5094238;28;20539;-85
2022/01/03 03:09:57;;;;;;;16.60;3.60;;;9.30;99.90;;;;;;5073555;28;20102;-85
2022/01/03 03:12:24;;;;;;;16.47;3.80;;;9.40;99.90;;;;;;5090005;28;20048;-86
2022/01/03 03:14:50;;;;;;;22.33;4.30;;;9.40;99.90;;;;;;5089482;28;20710;-84
2022/01/03 03:17:19;;;;;;;18.93;3.67;;;9.30;99.90;;;;;;5106248;28;20082;-85
2022/01/03 03:19:52;;;;;;;19.73;4.57;;;9.30;99.90;;;;;;5089658;28;20036;-84
2022/01/03 03:22:18;;;;;;;20.67;3.70;;;9.30;99.90;;;;;;5084552;28;20048;-85
2022/01/03 03:24:44;;;;;;;17.63;4.30;;;9.30;99.90;;;;;;5069629;28;20108;-85
2022/01/03 03:27:11;;;;;;;26.23;4.13;;;9.30;99.90;;;;;;5096177;28;20478;-86
2022/01/03 03:29:43;;;;;;;17.10;4.00;;;9.30;99.90;;;;;;5089202;28;20044;-85
2022/01/03 03:32:10;;;;;;;22.70;3.90;;;9.30;99.90;;;;;;5084047;28;20056;-85
2022/01/03 03:34:36;;;;;;;18.47;3.40;;;9.30;99.90;;;;;;5081674;28;20311;-85
2022/01/03 03:37:02;;;;;;;22.00;4.10;;;9.30;99.90;;;;;;5098810;28;20046;-83
2022/01/03 03:39:28;;;;;;;18.27;4.00;;;9.20;99.90;;;;;;5097234;28;20047;-84
2022/01/03 03:41:53;;;;;;;19.20;3.77;;;9.20;99.90;;;;;;5075051;28;20060;-84
2022/01/03 03:44:19;;;;;;;17.83;3.10;;;9.10;99.90;;;;;;5105476;28;20151;-83
2022/01/03 03:46:45;;;;;;;27.77;4.33;;;9.10;99.90;;;;;;5071700;28;20036;-84
2022/01/03 03:49:10;;;;;;;21.67;4.43;;;9.10;99.90;;;;;;5111569;28;20048;-85
2022/01/03 03:51:38;;;;;;;18.93;4.07;;;9.10;99.90;;;;;;5066633;28;20047;-85
2022/01/03 03:54:04;;;;;;;23.10;4.17;;;9.20;99.90;;;;;;5063024;28;20052;-84
2022/01/03 03:56:31;;;;;;;17.67;3.83;;;9.10;99.90;;;;;;5073113;28;20144;-84
2022/01/03 03:58:56;;;;;;;22.77;4.47;;;9.10;99.90;;;;;;5075234;28;20047;-83
2022/01/03 04:01:23;;;;;;;20.53;3.97;;;9.20;99.90;;;;;;5072111;28;20051;-84
2022/01/03 04:03:49;;;;;;;16.00;3.93;;;9.20;99.90;;;;;;5090402;28;20535;-85
2022/01/03 04:06:15;;;;;;;20.53;4.23;;;9.20;99.90;;;;;;5072135;28;20048;-84
2022/01/03 04:08:40;;;;;;;23.20;4.20;;;9.20;99.90;;;;;;5072726;28;20047;-86
2022/01/03 04:11:06;;;;;;;23.80;4.37;;;9.20;99.90;;;;;;5069877;28;20051;-85
2022/01/03 04:13:32;;;;;;;21.73;4.43;;;9.20;99.90;;;;;;5068565;28;20085;-84
2022/01/03 04:15:57;;;;;;;25.43;4.13;;;9.20;99.90;;;;;;5063107;28;20048;-84
2022/01/03 04:18:23;;;;;;;22.87;4.63;;;9.20;99.90;;;;;;5088582;28;20451;-84
2022/01/03 04:20:49;;;;;;;22.17;4.50;;;9.20;99.90;;;;;;5081969;28;20108;-83
2022/01/03 04:23:16;;;;;;;27.83;4.40;;;9.30;99.90;;;;;;5069164;28;20050;-85
2022/01/03 04:25:41;;;;;;;26.13;4.20;;;9.30;99.90;;;;;;5080630;28;20411;-84
2022/01/03 04:28:07;;;;;;;24.30;4.60;;;9.30;99.90;;;;;;5075997;28;20044;-84
2022/01/03 04:30:33;;;;;;;18.03;3.93;;;9.30;99.90;;;;;;5090827;28;20036;-86
2022/01/03 04:32:59;;;;;;;25.53;4.20;;;9.30;99.90;;;;;;5072501;28;20066;-85
2022/01/03 04:35:24;;;;;;;21.40;4.60;;;9.30;99.90;;;;;;5104953;27;20046;-83
2022/01/03 04:37:50;;;;;;;24.13;4.40;;;9.30;99.90;;;;;;5088207;28;20585;-84
2022/01/03 04:40:16;;;;;;;20.20;4.07;;;9.40;99.90;;;;;;5078059;28;20044;-84
2022/01/03 04:42:41;;;;;;;25.57;5.23;;;9.40;99.90;;;;;;5068549;28;20036;-85
2022/01/03 04:45:07;;;;;;;25.03;4.50;;;9.40;99.90;;;;;;5072476;28;20036;-84
2022/01/03 04:47:33;;;;;;;34.00;5.37;;;9.40;99.90;;;;;;5088357;28;20578;-84
2022/01/03 04:49:59;;;;;;;19.10;4.33;;;9.40;99.90;;;;;;5093044;28;20080;-85
2022/01/03 04:52:25;;;;;;;28.00;5.10;;;9.40;99.90;;;;;;5068879;28;20083;-84
2022/01/03 04:54:50;;;;;;;21.40;4.53;;;9.40;99.90;;;;;;5082105;28;20040;-84
2022/01/03 04:57:16;;;;;;;21.60;5.10;;;9.50;99.90;;;;;;5084839;28;20051;-84
2022/01/03 04:59:42;;;;;;;23.87;4.57;;;9.40;99.90;;;;;;5097925;28;20045;-84
2022/01/03 05:02:08;;;;;;;26.43;4.70;;;9.50;99.90;;;;;;5064169;28;20079;-84
2022/01/03 05:04:34;;;;;;;21.40;5.20;;;9.50;99.90;;;;;;5074769;28;20047;-84
2022/01/03 05:07:00;;;;;;;19.30;4.60;;;9.50;99.90;;;;;;5071590;28;20075;-84
2022/01/03 05:09:25;;;;;;;26.07;5.03;;;9.50;99.90;;;;;;5062612;28;20056;-85
2022/01/03 05:11:51;;;;;;;23.87;4.60;;;9.60;99.90;;;;;;5065647;28;20055;-84
2022/01/03 05:14:17;;;;;;;27.37;5.63;;;9.60;99.90;;;;;;5060370;28;20099;-84
2022/01/03 05:16:42;;;;;;;25.83;5.10;;;9.50;99.90;;;;;;5073891;28;20036;-84
2022/01/03 05:19:08;;;;;;;22.43;4.57;;;9.50;99.90;;;;;;5074074;28;20044;-84
2022/01/03 05:21:34;;;;;;;23.17;4.60;;;9.50;99.90;;;;;;5068183;28;20042;-83
2022/01/03 05:24:00;;;;;;;33.03;5.63;;;9.50;99.90;;;;;;5070669;28;20073;-85
2022/01/03 05:26:25;;;;;;;25.93;4.80;;;9.50;99.90;;;;;;5072415;28;20160;-83
2022/01/03 05:28:51;;;;;;;30.27;5.83;;;9.50;99.90;;;;;;5065530;28;20040;-84
2022/01/03 05:31:17;;;;;;;24.73;4.77;;;9.50;99.90;;;;;;5043352;28;20044;-84
2022/01/03 05:33:43;;;;;;;21.90;4.97;;;9.50;99.90;;;;;;5075514;28;20754;-83
2022/01/03 05:36:09;;;;;;;22.73;4.73;;;9.50;99.90;;;;;;5065507;28;20052;-84
2022/01/03 05:38:35;;;;;;;20.03;4.57;;;9.50;99.90;;;;;;5061082;28;20044;-83
2022/01/03 05:41:00;;;;;;;27.17;5.00;;;9.50;99.90;;;;;;5076456;28;20055;-84
2022/01/03 05:43:26;;;;;;;30.70;5.73;;;9.50;99.90;;;;;;5086638;28;20575;-84
2022/01/03 05:45:52;;;;;;;28.93;5.93;;;9.50;99.90;;;;;;5068891;28;20313;-85
2022/01/03 05:48:17;;;;;;;27.83;4.90;;;9.50;99.90;;;;;;5067315;28;20052;-83
2022/01/03 05:50:43;;;;;;;26.77;5.50;;;9.50;99.90;;;;;;5090010;28;20048;-84
2022/01/03 05:53:09;;;;;;;33.70;5.37;;;9.50;99.90;;;;;;5084180;28;20077;-84
2022/01/03 05:55:34;;;;;;;21.03;4.70;;;9.50;99.90;;;;;;5061207;28;20074;-83
2022/01/03 05:58:00;;;;;;;24.87;4.57;;;9.50;99.90;;;;;;5071918;28;20051;-85
2022/01/03 06:00:27;;;;;;;21.53;4.87;;;9.50;99.90;;;;;;5068981;28;20041;-84
2022/01/03 06:02:56;;;;;;;30.33;4.60;;;9.50;99.90;;;;;;5056314;28;20037;-83
2022/01/03 06:06:32;;;;;;;25.83;4.83;;;9.50;99.90;;;;;;5069401;28;20055;-84
2022/01/03 06:08:17;;;;;;;24.10;5.03;;;9.50;99.90;;;;;;5084269;28;20064;-85
2022/01/03 06:10:42;;;;;;;23.73;4.83;;;9.50;99.90;;;;;;5071738;28;20058;-83
2022/01/03 06:13:08;;;;;;;21.33;4.60;;;9.50;99.90;;;;;;5055232;28;20032;-84
2022/01/03 06:15:38;;;;;;;27.23;4.60;;;9.50;99.90;;;;;;5073474;28;20155;-83
2022/01/03 06:18:04;;;;;;;24.60;4.90;;;9.50;99.90;;;;;;5091345;28;20441;-84
2022/01/03 06:20:31;;;;;;;18.00;4.13;;;9.50;99.90;;;;;;5054955;28;20112;-83
2022/01/03 06:22:57;;;;;;;23.00;4.57;;;9.50;99.90;;;;;;5069399;28;20099;-83
2022/01/03 06:25:22;;;;;;;27.63;4.77;;;9.50;99.90;;;;;;5095481;28;20095;-84
2022/01/03 06:27:48;;;;;;;26.67;4.60;;;9.50;99.90;;;;;;5067041;28;20041;-84
2022/01/03 06:30:14;;;;;;;21.90;4.13;;;9.50;99.90;;;;;;5071408;28;20660;-85
2022/01/03 06:32:40;;;;;;;23.47;4.87;;;9.50;99.90;;;;;;5064091;28;20059;-84
2022/01/03 06:35:06;;;;;;;26.10;4.70;;;9.40;99.90;;;;;;5089220;28;20048;-83
2022/01/03 06:37:32;;;;;;;25.13;5.00;;;9.40;99.90;;;;;;5072409;28;20387;-84
2022/01/03 06:39:58;;;;;;;26.83;4.47;;;9.40;99.90;;;;;;5063279;28;20041;-84
2022/01/03 06:42:24;;;;;;;30.80;4.93;;;9.40;99.90;;;;;;5085574;28;20152;-90
2022/01/03 06:44:49;;;;;;;23.90;4.80;;;9.40;99.90;;;;;;5090410;28;20091;-90
2022/01/03 06:47:17;;;;;;;29.50;5.67;;;9.40;99.90;;;;;;5062580;28;20040;-88
2022/01/03 06:49:44;;;;;;;22.97;4.70;;;9.40;99.90;;;;;;5068240;28;20048;-82
2022/01/03 06:52:10;;;;;;;25.40;4.50;;;9.40;99.90;;;;;;5071529;28;20090;-85
2022/01/03 06:54:35;;;;;;;27.57;5.43;;;9.40;99.90;;;;;;5088453;28;20492;-83
2022/01/03 06:57:01;;;;;;;24.33;4.73;;;9.30;99.90;;;;;;5070800;28;20059;-89
2022/01/03 06:59:27;;;;;;;19.03;4.33;;;9.30;99.90;;;;;;5088968;28;20036;-90
2022/01/03 07:01:53;;;;;;;23.73;4.60;;;9.30;99.90;;;;;;5063549;28;20048;-88
2022/01/03 07:04:18;;;;;;;27.90;5.00;;;9.30;99.90;;;;;;5076923;28;20076;-87
2022/01/03 07:06:44;;;;;;;27.87;4.50;;;9.30;99.90;;;;;;5063389;28;20112;-86
2022/01/03 07:09:10;;;;;;;27.40;4.87;;;9.30;99.90;;;;;;5059986;28;20051;-86
2022/01/03 07:11:36;;;;;;;21.07;4.50;;;9.30;99.90;;;;;;5086127;28;20081;-88
2022/01/03 07:19:46;;;;;;;23.33;4.87;;;9.30;99.90;;;;;;5096225;28;20044;-89
2022/01/03 07:22:12;;;;;;;26.10;4.30;;;9.30;99.90;;;;;;5063172;28;20040;-89
2022/01/03 07:24:39;;;;;;;24.97;4.50;;;9.30;99.90;;;;;;5066037;28;20044;-86
2022/01/03 07:27:07;;;;;;;23.87;4.90;;;9.30;99.90;;;;;;5096614;28;20108;-88
2022/01/03 07:29:34;;;;;;;29.57;4.90;;;9.30;99.90;;;;;;5067107;28;20036;-88
2022/01/03 07:32:00;;;;;;;29.57;5.10;;;9.30;99.90;;;;;;5070205;27;20051;-89
2022/01/03 07:34:26;;;;;;;27.33;5.03;;;9.30;99.90;;;;;;5094734;27;20047;-86
2022/01/03 07:36:52;;;;;;;29.17;5.00;;;9.30;99.90;;;;;;5082612;28;20054;-88
2022/01/03 07:39:18;;;;;;;28.27;4.57;;;9.30;99.90;;;;;;5077732;27;20046;-87
2022/01/03 07:41:44;;;;;;;31.50;5.13;;;9.30;99.90;;;;;;5093856;27;20113;-87
2022/01/03 07:44:10;;;;;;;25.27;4.40;;;9.30;99.90;;;;;;5100877;27;20051;-87
2022/01/03 07:46:36;;;;;;;24.10;5.00;;;9.30;99.90;;;;;;5086499;27;20103;-87
2022/01/03 07:49:02;;;;;;;26.43;4.67;;;9.20;99.90;;;;;;5088141;28;20086;-87
2022/01/03 07:51:28;;;;;;;18.63;4.30;;;9.20;99.90;;;;;;5102535;27;20107;-86
2022/01/03 07:53:54;;;;;;;30.73;5.23;;;9.30;99.90;;;;;;5096048;27;20113;-86
2022/01/03 07:56:19;;;;;;;27.37;4.90;;;9.30;99.90;;;;;;5072025;27;20060;-87
2022/01/03 07:58:46;;;;;;;27.20;4.60;;;9.30;99.90;;;;;;5084094;27;20047;-86
2022/01/03 08:01:12;;;;;;;29.87;5.50;;;9.40;99.90;;;;;;5066667;27;20047;-82
2022/01/03 08:03:38;;;;;;;26.93;5.33;;;9.30;99.90;;;;;;5079942;27;20035;-86
2022/01/03 08:06:05;;;;;;;26.10;5.40;;;9.40;99.90;;;;;;5094025;28;20051;-83
2022/01/03 08:08:31;;;;;;;27.20;5.07;;;9.40;99.90;;;;;;5097247;27;20089;-84
2022/01/03 08:10:56;;;;;;;26.97;5.40;;;9.40;99.90;;;;;;5071489;27;20062;-84
2022/01/03 08:13:22;;;;;;;25.57;4.70;;;9.40;99.90;;;;;;5083900;27;20039;-83
2022/01/03 08:15:48;;;;;;;28.03;4.97;;;9.40;99.90;;;;;;5101152;27;20035;-82
2022/01/03 08:18:14;;;;;;;25.83;5.23;;;9.40;99.90;;;;;;5115692;27;20103;-83
2022/01/03 08:20:40;;;;;;;28.17;5.30;;;9.50;99.90;;;;;;5099932;27;20130;-83
2022/01/03 08:23:06;;;;;;;28.17;5.37;;;9.50;99.90;;;;;;5082992;27;20047;-84
2022/01/03 08:25:36;;;;;;;28.43;4.83;;;9.50;99.90;;;;;;5118337;27;20070;-83
2022/01/03 08:28:06;;;;;;;28.40;5.07;;;9.50;99.90;;;;;;5117096;27;20094;-83
2022/01/03 08:30:33;;;;;;;20.80;4.33;;;9.50;99.90;;;;;;5115854;27;20051;-83
2022/01/03 08:33:00;;;;;;;29.20;5.63;;;9.50;99.90;;;;;;5098931;27;20043;-83
2022/01/03 08:35:26;;;;;;;28.83;5.00;;;9.50;99.90;;;;;;5098202;27;20078;-82
2022/01/03 08:37:52;;;;;;;32.23;6.27;;;9.60;99.90;;;;;;5100310;27;20035;-83
2022/01/03 08:40:18;;;;;;;29.47;6.23;;;9.60;99.90;;;;;;5089520;27;20097;-83
2022/01/03 08:42:43;;;;;;;27.10;4.73;;;9.60;99.90;;;;;;5083824;28;20491;-83
2022/01/03 08:45:09;;;;;;;24.03;4.80;;;9.60;99.90;;;;;;5091348;27;21840;-83
2022/01/03 08:47:35;;;;;;;31.43;6.13;;;9.60;99.90;;;;;;5106528;28;20092;-84
2022/01/03 08:50:02;;;;;;;17.10;4.30;;;9.60;99.90;;;;;;5072654;27;20047;-83
2022/01/03 08:52:30;;;;;;;24.83;5.47;;;9.70;99.90;;;;;;5094515;28;20554;-83
2022/01/03 08:54:56;;;;;;;20.23;4.57;;;9.70;99.90;;;;;;5088134;27;20895;-83
2022/01/03 08:57:22;;;;;;;17.57;4.63;;;9.70;99.90;;;;;;5083328;27;20067;-94
2022/01/03 08:59:49;;;;;;;20.07;4.33;;;9.70;99.90;;;;;;5082648;27;20046;-86
2022/01/03 09:02:16;;;;;;;21.20;4.50;;;9.80;99.90;;;;;;5074176;27;20058;-86
2022/01/03 09:04:43;;;;;;;25.63;5.63;;;9.80;99.90;;;;;;5099218;27;20169;-85
2022/01/03 09:07:09;;;;;;;27.07;4.73;;;9.80;99.90;;;;;;5108942;27;20467;-86
2022/01/03 09:09:35;;;;;;;19.07;4.67;;;9.80;99.90;;;;;;5093722;27;20047;-86
2022/01/03 09:12:02;;;;;;;28.90;5.43;;;9.80;99.90;;;;;;5082719;27;20059;-86
2022/01/03 09:14:28;;;;;;;28.93;4.77;;;9.80;99.90;;;;;;5088454;27;20642;-87
2022/01/03 09:16:54;;;;;;;24.23;4.87;;;9.80;99.90;;;;;;5077748;27;20039;-86
2022/01/03 09:19:19;;;;;;;20.60;4.30;;;9.80;99.90;;;;;;5090975;28;20062;-84
2022/01/03 09:21:45;;;;;;;22.23;4.43;;;9.90;99.90;;;;;;5088279;27;20036;-86
2022/01/03 09:29:28;;;;;;;26.47;5.00;;;9.90;99.90;;;;;;5093998;28;20010;-86
2022/01/03 09:31:54;;;;;;;25.43;3.90;;;9.90;99.90;;;;;;5099467;27;20128;-85
2022/01/03 09:34:20;;;;;;;22.23;4.17;;;9.90;99.90;;;;;;5116578;27;20073;-86
2022/01/03 09:36:46;;;;;;;22.57;5.23;;;9.90;99.90;;;;;;5093752;27;20043;-85
2022/01/03 09:39:11;;;;;;;22.40;5.00;;;9.90;99.90;;;;;;5081979;28;20055;-86
2022/01/03 09:41:44;;;;;;;24.60;4.70;;;9.90;99.90;;;;;;5078983;28;20047;-86
2022/01/03 09:44:11;;;;;;;22.37;4.10;;;9.90;99.90;;;;;;5098490;28;20051;-86
2022/01/03 09:46:43;;;;;;;19.80;4.83;;;9.90;99.90;;;;;;5080900;27;20039;-86
2022/01/03 09:49:10;;;;;;;;;;;9.90;99.90;;;;;;5083048;27;20047;-86
2022/01/03 09:51:38;;;;;;;24.93;5.17;;;9.90;99.90;;;;;;5099152;28;19923;-87
2022/01/03 09:54:14;;;;;;;25.60;4.43;;;10.00;99.90;;;;;;5094001;28;20043;-84
2022/01/03 09:56:42;;;;;;;23.03;4.97;;;10.00;99.90;;;;;;5098890;28;20047;-86
2022/01/03 09:59:09;;;;;;;18.30;4.23;;;10.00;99.90;;;;;;5092856;28;20047;-86
2022/01/03 10:01:35;;;;;;;23.67;5.17;;;10.00;99.90;;;;;;5086402;28;20142;-85
2022/01/03 10:04:03;;;;;;;25.70;6.30;;;10.10;99.90;;;;;;5110065;28;20147;-86
2022/01/03 10:06:29;;;;;;;19.37;4.13;;;10.10;99.90;;;;;;5080570;28;20039;-85
2022/01/03 10:08:55;;;;;;;20.10;4.57;;;10.10;99.90;;;;;;5101763;28;20666;-86
2022/01/03 10:11:25;;;;;;;24.60;4.47;;;10.10;99.90;;;;;;5077500;28;20051;-86
2022/01/03 10:13:51;;;;;;;25.30;4.53;;;10.10;99.90;;;;;;5100227;28;20473;-83
2022/01/03 10:16:18;;;;;;;16.10;4.47;;;10.10;99.90;;;;;;5082487;28;20470;-78
2022/01/03 10:18:48;;;;;;;19.50;4.97;;;10.10;99.90;;;;;;5097465;28;20667;-83
2022/01/03 10:21:42;;;;;;;22.10;4.63;;;10.10;99.90;;;;;;5081564;28;20047;-84
2022/01/03 10:24:09;;;;;;;19.57;4.37;;;10.20;99.90;;;;;;5095738;28;20042;-84
2022/01/03 10:26:37;;;;;;;22.77;4.63;;;10.20;99.90;;;;;;5065466;28;20049;-85
2022/01/03 10:29:15;;;;;;;21.33;4.57;;;10.20;99.90;;;;;;5095605;28;20067;-84
2022/01/03 10:31:43;;;;;;;21.77;5.10;;;10.20;99.90;;;;;;5094631;28;20047;-84
2022/01/03 10:34:12;;;;;;;24.90;4.93;;;10.20;99.90;;;;;;5094140;28;20051;-84
2022/01/03 10:36:40;;;;;;;18.40;3.77;;;10.30;99.90;;;;;;5079220;28;20444;-88
2022/01/03 10:39:11;;;;;;;20.47;4.50;;;10.30;99.90;;;;;;5078684;28;20050;-84
2022/01/03 10:41:37;;;;;;;18.52;4.10;;;10.30;99.90;;;;;;5100033;28;20054;-83
2022/01/03 10:44:03;;;;;;;20.33;4.10;;;10.30;99.90;;;;;;5092437;28;20028;-83
2022/01/03 10:46:31;;;;;;;21.77;4.03;;;10.30;99.90;;;;;;5068145;27;20035;-86
2022/01/03 10:49:10;;;;;;;22.27;3.83;;;10.30;99.90;;;;;;5081285;27;20039;-84
2022/01/03 10:51:36;;;;;;;23.10;4.60;;;10.30;99.90;;;;;;5122976;27;20039;-81
2022/01/03 10:54:08;;;;;;;18.33;4.30;;;10.30;99.90;;;;;;5081570;27;20050;-84
2022/01/03 10:56:42;;;;;;;17.00;4.25;;;10.30;99.90;;;;;;5100703;27;20082;-83
2022/01/03 10:59:24;;;;;;;27.07;4.83;;;10.30;99.90;;;;;;5100094;28;20139;-82
2022/01/03 11:01:52;;;;;;;23.17;4.18;;;10.30;99.90;;;;;;5115610;27;20043;-84
2022/01/03 11:04:54;;;;;;;19.77;5.17;;;10.30;99.90;;;;;;5114255;27;20047;-83
2022/01/03 11:13:15;;;;;;;21.43;3.97;;;10.40;99.90;;;;;;5131593;27;20062;-84
2022/01/03 11:15:42;;;;;;;17.63;3.88;;;10.40;99.90;;;;;;5088263;27;20074;-86
2022/01/03 11:18:22;;;;;;;22.57;4.63;;;10.40;99.90;;;;;;5112230;27;20501;-84
2022/01/03 11:21:21;;;;;;;22.47;3.87;;;10.40;99.90;;;;;;5074947;28;20063;-82
2022/01/03 11:23:49;;;;;;;26.03;4.50;;;10.50;99.90;;;;;;5086227;27;20059;-80
2022/01/03 11:26:20;;;;;;;20.57;4.93;;;10.40;99.90;;;;;;5093200;27;20047;-81
2022/01/03 11:28:47;;;;;;;22.77;4.03;;;10.50;99.90;;;;;;5092869;27;20106;-80
2022/01/03 11:31:16;;;;;;;18.27;4.10;;;10.50;99.90;;;;;;5092998;27;20048;-81
2022/01/03 11:33:42;;;;;;;15.80;3.90;;;10.50;99.90;;;;;;5093690;28;20043;-80
2022/01/03 11:36:09;;;;;;;18.47;3.83;;;10.50;99.90;;;;;;5090460;27;20051;-80
2022/01/03 11:38:38;;;;;;;21.80;4.13;;;10.50;99.90;;;;;;5091625;27;20595;-80
2022/01/03 11:41:11;;;;;;;20.67;4.23;;;10.50;99.90;;;;;;5100904;27;20043;-80
2022/01/03 11:43:39;;;;;;;24.20;4.30;;;10.60;99.90;;;;;;5106722;27;20055;-79
2022/01/03 11:46:06;;;;;;;18.93;4.60;;;10.60;99.90;;;;;;5090816;27;20051;-80
2022/01/03 11:48:32;;;;;;;19.17;4.77;;;10.70;99.90;;;;;;5076985;28;20055;-82
2022/01/03 11:51:05;;;;;;;21.97;4.13;;;10.80;99.90;;;;;;5074960;27;20075;-81
2022/01/03 11:53:35;;;;;;;22.33;4.47;;;10.80;99.90;;;;;;5100608;27;20058;-82
2022/01/03 11:56:04;;;;;;;18.70;4.23;;;10.80;99.90;;;;;;5093659;27;20051;-82
2022/01/03 11:59:05;;;;;;;22.37;4.30;;;10.80;99.90;;;;;;5086617;28;20050;-82
2022/01/03 12:04:27;;;;;;;22.10;4.53;;;10.80;99.90;;;;;;5113559;27;20059;-83
2022/01/03 12:07:16;;;;;;;23.87;4.73;;;10.70;99.90;;;;;;5133154;27;20047;-82
2022/01/03 12:09:47;;;;;;;21.57;4.43;;;10.70;99.90;;;;;;5072458;27;20082;-82
2022/01/03 12:12:34;;;;;;;19.57;4.67;;;10.70;99.90;;;;;;5095471;27;21002;-83
2022/01/03 12:15:02;;;;;;;20.67;4.00;;;10.70;99.90;;;;;;5096128;27;20059;-83
2022/01/03 12:17:47;;;;;;;19.30;3.67;;;10.70;99.90;;;;;;5084244;27;20042;-82
2022/01/03 12:20:13;;;;;;;19.50;3.77;;;10.70;99.90;;;;;;5096036;28;20304;-81
2022/01/03 12:22:53;;;;;;;22.30;4.03;;;10.70;99.90;;;;;;5097258;27;20118;-82
2022/01/03 12:25:27;;;;;;;19.43;3.60;;;10.80;99.90;;;;;;5096782;27;20051;-82
2022/01/03 12:27:58;;;;;;;20.70;4.33;;;10.80;99.90;;;;;;5095192;27;20079;-81
2022/01/03 12:30:34;;;;;;;26.87;4.80;;;10.80;99.90;;;;;;5097844;27;20050;-82
2022/01/03 12:33:06;;;;;;;25.83;4.37;;;10.80;99.90;;;;;;5096443;27;20050;-81
2022/01/03 12:35:34;;;;;;;;;;;10.90;99.90;;;;;;5103815;28;20051;-82
2022/01/03 12:38:02;;;;;;;15.47;4.20;;;10.90;99.90;;;;;;5133703;27;19939;-82
2022/01/03 12:40:32;;;;;;;16.57;3.53;;;10.90;99.90;;;;;;5104999;27;20050;-81
2022/01/03 12:43:11;;;;;;;22.87;4.47;;;11.00;99.90;;;;;;5088117;27;20043;-81
2022/01/03 12:45:36;;;;;;;18.37;4.00;;;11.00;99.90;;;;;;5087641;27;20066;-82
2022/01/03 12:48:08;;;;;;;24.87;4.30;;;11.00;99.90;;;;;;5095645;28;20050;-82
2022/01/03 12:51:00;;;;;;;19.38;3.65;;;11.00;99.90;;;;;;5093841;27;20106;-82
2022/01/03 12:53:26;;;;;;;21.00;4.90;;;11.00;99.90;;;;;;5083467;27;20043;-77
2022/01/03 12:55:54;;;;;;;23.40;3.83;;;11.00;99.90;;;;;;5090228;27;20073;-80
2022/01/03 12:58:19;;;;;;;21.77;4.47;;;10.90;99.90;;;;;;5097486;27;20050;-79
2022/01/03 13:00:51;;;;;;;21.80;4.07;;;10.90;99.90;;;;;;5094610;27;20039;-82
2022/01/03 13:03:27;;;;;;;27.92;4.60;;;11.00;99.90;;;;;;5098428;28;20080;-84
2022/01/03 13:06:11;;;;;;;26.70;4.33;;;10.90;99.90;;;;;;5084477;27;20121;-83
2022/01/03 13:08:41;;;;;;;17.93;4.10;;;10.90;99.90;;;;;;5109648;28;20150;-83
2022/01/03 13:11:09;;;;;;;16.90;4.30;;;10.90;99.90;;;;;;5117089;27;20039;-83
2022/01/03 13:13:37;;;;;;;20.33;4.87;;;10.80;99.90;;;;;;5084745;28;20042;-82